createdAt,value
2023-01-03T00:01:56.009Z,98446.39
2023-01-03T00:04:23.757Z,98440.26
2023-01-03T00:06:53.573Z,98442.14
2023-01-03T00:09:23.937Z,98446.42
2023-01-03T00:12:12.936Z,98446.13
2023-01-03T00:14:43.309Z,98452.31
2023-01-03T00:17:12.533Z,98452.31
2023-01-03T00:19:44.661Z,98450.67
2023-01-03T00:22:15.259Z,98453.28
2023-01-03T00:24:47.799Z,98453.51
2023-01-03T00:27:16.648Z,98456.65
2023-01-03T00:29:44.922Z,98464.64
2023-01-03T00:32:13.053Z,98470.75
2023-01-03T00:34:44.434Z,98471.52
2023-01-03T00:37:14.076Z,98476.82
2023-01-03T00:39:43.369Z,98467.91
2023-01-03T00:42:11.268Z,98475.58
2023-01-03T00:44:39.134Z,98467.77
2023-01-03T00:47:06.750Z,98463.71
2023-01-03T00:49:34.693Z,98468.75
2023-01-03T00:52:02.424Z,98453.95
2023-01-03T00:54:29.919Z,98450.16
2023-01-03T00:56:57.551Z,98458.67
2023-01-03T00:59:26.616Z,98462.31
2023-01-03T01:01:56.777Z,98465.46
2023-01-03T01:04:31.035Z,98467.28
2023-01-03T01:07:02.246Z,98465.63
2023-01-03T01:09:34.213Z,98469.91
2023-01-03T01:12:02.526Z,98460.48
2023-01-03T01:14:33.198Z,98463.16
2023-01-03T01:17:04.906Z,98456.75
2023-01-03T01:19:39.984Z,98453.59
2023-01-03T01:22:08.488Z,98453.37
2023-01-03T01:24:36.348Z,98444.34
2023-01-03T01:27:04.367Z,98447.38
2023-01-03T01:29:32.279Z,98446.89
2023-01-03T01:32:01.244Z,98441.59
2023-01-03T01:34:29.981Z,98444.57
2023-01-03T01:36:57.811Z,98444.31
2023-01-03T01:39:28.700Z,98444.58
2023-01-03T01:42:20.572Z,98439.50
2023-01-03T01:44:57.303Z,98444.31
2023-01-03T01:47:54.510Z,98439.23
2023-01-03T01:50:38.962Z,98434.73
2023-01-03T01:53:14.877Z,98433.17
2023-01-03T01:56:03.026Z,98435.39
2023-01-03T01:58:37.555Z,98429.25
2023-01-03T02:01:12.163Z,98429.02
2023-01-03T02:03:43.231Z,98433.64
2023-01-03T02:06:15.074Z,98429.64
2023-01-03T02:08:42.733Z,98432.66
2023-01-03T02:11:27.973Z,98430.06
2023-01-03T02:14:20.761Z,98428.23
2023-01-03T02:16:56.682Z,98434.19
2023-01-03T02:20:04.791Z,98433.73
2023-01-03T02:23:16.669Z,98425.50
2023-01-03T02:26:29.231Z,98427.67
2023-01-03T02:29:18.992Z,98427.94
2023-01-03T02:32:28.220Z,98431.92
2023-01-03T02:35:04.007Z,98425.46
2023-01-03T02:38:09.291Z,98434.53
2023-01-03T02:40:49.821Z,98432.92
2023-01-03T02:43:34.845Z,98437.41
2023-01-03T02:46:22.662Z,98440.09
2023-01-03T02:49:06.416Z,98445.94
2023-01-03T02:51:44.874Z,98445.40
2023-01-03T02:54:17.930Z,98439.20
2023-01-03T02:56:50.986Z,98442.61
2023-01-03T02:59:24.762Z,98446.31
2023-01-03T03:01:56.763Z,98440.91
2023-01-03T03:04:26.334Z,98445.42
2023-01-03T03:07:05.651Z,98447.53
2023-01-03T03:09:40.559Z,98442.97
2023-01-03T03:12:31.389Z,98439.77
2023-01-03T03:15:00.518Z,98430.36
2023-01-03T03:17:33.919Z,98447.48
2023-01-03T03:20:33.220Z,98451.50
2023-01-03T03:23:33.597Z,98450.66
2023-01-03T03:26:25.980Z,98460.32
2023-01-03T03:29:10.755Z,98458.14
2023-01-03T03:31:50.689Z,98458.41
2023-01-03T03:34:29.355Z,98455.95
2023-01-03T03:37:08.038Z,98451.94
2023-01-03T03:39:55.357Z,98452.20
2023-01-03T03:43:08.862Z,98458.36
2023-01-03T03:45:43.474Z,98457.02
2023-01-03T03:48:36.289Z,98456.98
2023-01-03T03:51:12.470Z,98459.13
2023-01-03T03:53:42.405Z,98453.77
2023-01-03T03:56:17.223Z,98455.95
2023-01-03T03:58:49.553Z,98462.95
2023-01-03T04:01:20.566Z,98460.33
2023-01-03T04:03:51.472Z,98455.05
2023-01-03T04:06:24.510Z,98455.63
2023-01-03T04:08:52.230Z,98452.78
2023-01-03T04:11:20.440Z,98450.19
2023-01-03T04:13:48.113Z,98456.95
2023-01-03T04:16:15.737Z,98456.15
2023-01-03T04:18:43.474Z,98456.72
2023-01-03T04:21:18.741Z,98458.83
2023-01-03T04:23:43.195Z,98448.62
2023-01-03T04:26:11.005Z,98458.22
2023-01-03T04:28:38.911Z,98454.16
2023-01-03T04:31:06.506Z,98453.84
2023-01-03T04:33:34.175Z,98460.99
2023-01-03T04:36:01.723Z,98456.66
2023-01-03T04:38:29.421Z,98452.84
2023-01-03T04:41:06.336Z,98455.46
2023-01-03T04:43:52.713Z,98456.75
2023-01-03T04:46:20.843Z,98454.03
2023-01-03T04:48:48.733Z,98455.06
2023-01-03T04:51:16.469Z,98455.55
2023-01-03T04:53:44.087Z,98457.11
2023-01-03T04:56:11.832Z,98458.67
2023-01-03T04:58:39.372Z,98455.98
2023-01-03T05:01:07.764Z,98459.95
2023-01-03T05:03:37.582Z,98459.94
2023-01-03T05:06:08.223Z,98468.19
2023-01-03T05:08:35.875Z,98467.65
2023-01-03T05:11:03.881Z,98470.55
2023-01-03T05:13:33.393Z,98477.22
2023-01-03T05:16:13.308Z,98478.52
2023-01-03T05:18:42.046Z,98486.49
2023-01-03T05:21:35.786Z,98485.67
2023-01-03T05:24:22.956Z,98482.20
2023-01-03T05:26:52.153Z,98487.83
2023-01-03T05:29:21.608Z,98495.85
2023-01-03T05:31:49.649Z,98499.59
2023-01-03T05:34:17.274Z,98504.39
2023-01-03T05:36:45.178Z,98502.25
2023-01-03T05:39:13.631Z,98509.73
2023-01-03T05:41:59.736Z,98505.73
2023-01-03T05:44:32.713Z,98503.33
2023-01-03T05:47:02.150Z,98501.19
2023-01-03T05:49:29.900Z,98496.86
2023-01-03T05:51:57.682Z,98503.27
2023-01-03T05:54:25.401Z,98503.27
2023-01-03T05:56:53.286Z,98512.63
2023-01-03T05:59:22.149Z,98515.78
2023-01-03T06:01:50.611Z,98520.55
2023-01-03T06:04:19.643Z,98513.84
2023-01-03T06:06:47.949Z,98515.72
2023-01-03T06:09:15.758Z,98526.10
2023-01-03T06:11:43.566Z,98524.49
2023-01-03T06:14:11.590Z,98524.22
2023-01-03T06:16:58.159Z,98528.23
2023-01-03T06:19:25.777Z,98536.31
2023-01-03T06:21:53.140Z,98540.64
2023-01-03T06:24:20.723Z,98542.03
2023-01-03T06:26:48.404Z,98549.52
2023-01-03T06:29:16.303Z,98546.00
2023-01-03T06:31:44.198Z,98544.34
2023-01-03T06:34:11.669Z,98544.34
2023-01-03T06:36:39.288Z,98548.28
2023-01-03T06:39:08.268Z,98546.77
2023-01-03T06:41:36.139Z,98546.09
2023-01-03T06:44:04.013Z,98545.44
2023-01-03T06:46:49.884Z,98547.19
2023-01-03T06:49:36.486Z,98550.84
2023-01-03T06:52:27.184Z,98542.41
2023-01-03T06:54:54.867Z,98547.45
2023-01-03T06:57:26.221Z,98549.38
2023-01-03T06:59:51.916Z,98547.84
2023-01-03T07:02:19.870Z,98554.04
2023-01-03T07:04:47.774Z,98556.00
2023-01-03T07:07:15.477Z,98551.80
2023-01-03T07:09:43.049Z,98551.31
2023-01-03T07:12:29.263Z,98559.72
2023-01-03T07:14:56.793Z,98553.84
2023-01-03T07:17:24.355Z,98553.59
2023-01-03T07:19:52.092Z,98554.44
2023-01-03T07:22:19.661Z,98551.84
2023-01-03T07:24:47.232Z,98553.25
2023-01-03T07:27:14.829Z,98547.42
2023-01-03T07:29:42.417Z,98555.23
2023-01-03T07:32:09.957Z,98553.69
2023-01-03T07:34:37.513Z,98548.72
2023-01-03T07:37:05.075Z,98554.98
2023-01-03T07:39:32.648Z,98552.92
2023-01-03T07:42:18.642Z,98557.52
2023-01-03T07:44:46.190Z,98556.44
2023-01-03T07:47:14.219Z,98558.89
2023-01-03T07:49:42.055Z,98560.73
2023-01-03T07:52:09.789Z,98564.27
2023-01-03T07:54:37.521Z,98571.53
2023-01-03T07:57:05.094Z,98562.44
2023-01-03T07:59:32.685Z,98550.03
2023-01-03T08:01:59.970Z,98556.72
2023-01-03T08:04:27.952Z,98558.58
2023-01-03T08:06:55.616Z,98561.25
2023-01-03T08:09:41.648Z,98569.80
2023-01-03T08:12:29.669Z,98566.55
2023-01-03T08:14:57.226Z,98570.81
2023-01-03T08:17:24.456Z,98570.03
2023-01-03T08:19:51.790Z,98577.57
2023-01-03T08:22:19.150Z,98581.53
2023-01-03T08:24:46.572Z,98585.48
2023-01-03T08:27:14.140Z,98581.41
2023-01-03T08:29:41.573Z,98585.43
2023-01-03T08:32:09.086Z,98582.25
2023-01-03T08:34:37.784Z,98586.06
2023-01-03T08:37:09.613Z,98579.88
2023-01-03T08:39:45.627Z,98582.80
2023-01-03T08:42:16.830Z,98580.08
2023-01-03T08:44:44.460Z,98578.67
2023-01-03T08:47:14.210Z,98579.16
2023-01-03T08:49:42.096Z,98581.48
2023-01-03T08:52:09.622Z,98584.36
2023-01-03T08:54:38.645Z,98577.01
2023-01-03T08:57:06.364Z,98577.89
2023-01-03T08:59:33.907Z,98567.15
2023-01-03T09:02:02.345Z,98572.29
2023-01-03T09:04:29.930Z,98570.55
2023-01-03T09:06:57.547Z,98567.34
2023-01-03T09:09:24.876Z,98566.54
2023-01-03T09:11:52.315Z,98566.81
2023-01-03T09:14:19.983Z,98555.92
2023-01-03T09:16:49.549Z,98545.66
2023-01-03T09:19:17.338Z,98543.85
2023-01-03T09:21:44.621Z,98538.30
2023-01-03T09:24:12.557Z,98535.48
2023-01-03T09:26:40.272Z,98536.86
2023-01-03T09:29:07.823Z,98536.12
2023-01-03T09:31:36.572Z,98532.17
2023-01-03T09:34:04.850Z,98530.08
2023-01-03T09:36:32.675Z,98526.07
2023-01-03T09:39:00.244Z,98526.17
2023-01-03T09:41:28.184Z,98523.06
2023-01-03T09:44:00.265Z,98526.11
2023-01-03T09:46:29.333Z,98524.38
2023-01-03T09:48:57.460Z,98523.98
2023-01-03T09:51:59.723Z,98518.18
2023-01-03T09:54:53.321Z,98517.42
2023-01-03T09:57:55.231Z,98523.93
2023-01-03T10:00:52.543Z,98519.95
2023-01-03T10:03:50.430Z,98526.42
2023-01-03T10:06:36.813Z,98516.09
2023-01-03T10:09:38.495Z,98509.55
2023-01-03T10:12:47.355Z,98510.69
2023-01-03T10:15:22.929Z,98503.82
2023-01-03T10:18:40.299Z,98504.69
2023-01-03T10:21:19.347Z,98500.64
2023-01-03T10:23:48.670Z,98510.05
2023-01-03T10:26:16.107Z,98509.58
2023-01-03T10:28:46.264Z,98507.19
2023-01-03T10:31:34.269Z,98504.23
2023-01-03T10:34:05.001Z,98503.70
2023-01-03T10:36:32.549Z,98502.09
2023-01-03T10:39:07.943Z,98499.33
2023-01-03T10:41:45.680Z,98490.72
2023-01-03T10:44:32.382Z,98488.27
2023-01-03T10:47:14.407Z,98490.45
2023-01-03T10:49:47.001Z,98494.80
2023-01-03T10:52:21.687Z,98493.97
2023-01-03T10:54:56.465Z,98489.70
2023-01-03T10:57:46.476Z,98488.42
2023-01-03T11:00:28.527Z,98492.50
2023-01-03T11:03:03.284Z,98483.38
2023-01-03T11:05:31.250Z,98484.80
2023-01-03T11:08:03.189Z,98488.09
2023-01-03T11:10:36.280Z,98486.25
2023-01-03T11:13:39.777Z,98484.94
2023-01-03T11:16:17.684Z,98482.32
2023-01-03T11:19:01.720Z,98479.70
2023-01-03T11:21:55.300Z,98480.82
2023-01-03T11:24:52.557Z,98468.23
2023-01-03T11:27:28.436Z,98463.70
2023-01-03T11:30:20.286Z,98465.34
2023-01-03T11:33:29.139Z,98472.05
2023-01-03T11:36:27.133Z,98474.75
2023-01-03T11:39:24.676Z,98465.36
2023-01-03T11:42:13.708Z,98477.45
2023-01-03T11:45:26.546Z,98469.61
2023-01-03T11:48:20.093Z,98461.55
2023-01-03T11:50:59.449Z,98455.08
2023-01-03T11:53:37.303Z,98459.95
2023-01-03T11:56:36.866Z,98459.68
2023-01-03T11:59:19.151Z,98463.45
2023-01-03T12:02:16.037Z,98457.53
2023-01-03T12:05:35.765Z,98457.28
2023-01-03T12:08:23.962Z,98451.36
2023-01-03T12:10:59.511Z,98452.98
2023-01-03T12:13:44.266Z,98459.16
2023-01-03T12:16:21.064Z,98460.79
2023-01-03T12:19:12.340Z,98460.23
2023-01-03T12:21:46.388Z,98465.11
2023-01-03T12:24:46.472Z,98468.05
2023-01-03T12:27:20.331Z,98457.28
2023-01-03T12:30:27.648Z,98445.45
2023-01-03T12:33:18.887Z,98451.61
2023-01-03T12:36:07.224Z,98457.26
2023-01-03T12:38:42.657Z,98454.84
2023-01-03T12:41:40.114Z,98444.63
2023-01-03T12:44:21.527Z,98441.91
2023-01-03T12:46:54.404Z,98435.19
2023-01-03T12:49:30.489Z,98438.42
2023-01-03T12:51:59.038Z,98436.51
2023-01-03T12:54:43.966Z,98431.66
2023-01-03T12:57:44.699Z,98425.47
2023-01-03T13:00:44.104Z,98431.91
2023-01-03T13:03:25.638Z,98432.20
2023-01-03T13:06:02.369Z,98429.24
2023-01-03T13:08:48.562Z,98427.90
2023-01-03T13:11:26.933Z,98432.19
2023-01-03T13:14:23.924Z,98433.54
2023-01-03T13:17:16.663Z,98437.32
2023-01-03T13:19:58.173Z,98437.32
2023-01-03T13:22:51.613Z,98438.66
2023-01-03T13:25:40.016Z,98439.48
2023-01-03T13:28:22.425Z,98436.80
2023-01-03T13:30:53.950Z,98443.78
2023-01-03T13:33:21.711Z,98445.66
2023-01-03T13:35:54.763Z,98447.27
2023-01-03T13:38:35.334Z,98451.33
2023-01-03T13:41:18.185Z,98455.08
2023-01-03T13:43:40.246Z,98455.08
2023-01-03T13:46:19.536Z,98453.73
2023-01-03T13:49:02.722Z,98452.94
2023-01-03T13:51:46.577Z,98458.84
2023-01-03T13:54:19.603Z,98466.89
2023-01-03T13:56:58.031Z,98462.58
2023-01-03T13:59:47.087Z,98465.79
2023-01-03T14:02:40.348Z,98469.55
2023-01-03T14:05:58.307Z,98466.31
2023-01-03T14:08:37.599Z,98467.38
2023-01-03T14:11:28.759Z,98456.33
2023-01-03T14:14:07.682Z,98469.50
2023-01-03T14:16:58.268Z,98467.07
2023-01-03T14:19:37.839Z,98461.69
2023-01-03T14:22:28.896Z,98464.38
2023-01-03T14:24:56.963Z,98466.55
2023-01-03T14:27:40.787Z,98463.31
2023-01-03T14:30:24.572Z,98461.45
2023-01-03T14:32:52.521Z,98467.64
2023-01-03T14:35:39.015Z,98467.92
2023-01-03T14:38:29.241Z,98469.29
2023-01-03T14:40:58.117Z,98473.34
2023-01-03T14:43:28.659Z,98473.91
2023-01-03T14:46:01.457Z,98473.38
2023-01-03T14:48:29.068Z,98478.75
2023-01-03T14:51:03.326Z,98474.19
2023-01-03T14:53:34.075Z,98483.88
2023-01-03T14:56:02.812Z,98486.59
2023-01-03T14:58:39.819Z,98483.38
2023-01-03T15:01:10.930Z,98483.64
2023-01-03T15:03:43.522Z,98488.74
2023-01-03T15:06:25.537Z,98484.72
2023-01-03T15:08:57.574Z,98489.83
2023-01-03T15:11:40.964Z,98491.70
2023-01-03T15:14:13.029Z,98496.00
2023-01-03T15:16:42.664Z,98493.59
2023-01-03T15:19:21.735Z,98494.68
2023-01-03T15:21:49.744Z,98492.80
2023-01-03T15:24:23.092Z,98499.25
2023-01-03T15:26:52.663Z,98498.72
2023-01-03T15:29:30.496Z,98501.41
2023-01-03T15:32:00.825Z,98497.63
2023-01-03T15:34:41.485Z,98505.69
2023-01-03T15:37:19.826Z,98507.59
2023-01-03T15:39:52.076Z,98507.31
2023-01-03T15:42:45.195Z,98510.00
2023-01-03T15:45:22.668Z,98510.82
2023-01-03T15:47:57.338Z,98509.47
2023-01-03T15:50:49.357Z,98512.95
2023-01-03T15:53:30.447Z,98518.59
2023-01-03T15:56:12.158Z,98529.63
2023-01-03T15:58:40.440Z,98526.66
2023-01-03T16:01:09.975Z,98531.77
2023-01-03T16:03:38.247Z,98531.45
2023-01-03T16:06:06.077Z,98533.36
2023-01-03T16:08:36.945Z,98538.18
2023-01-03T16:11:20.313Z,98534.41
2023-01-03T16:13:55.945Z,98537.91
2023-01-03T16:16:35.052Z,98545.69
2023-01-03T16:19:04.126Z,98549.98
2023-01-03T16:21:32.372Z,98547.83
2023-01-03T16:24:01.888Z,98545.41
2023-01-03T16:26:29.609Z,98547.81
2023-01-03T16:28:58.797Z,98552.92
2023-01-03T16:31:32.766Z,98552.64
2023-01-03T16:34:02.778Z,98553.45
2023-01-03T16:36:38.928Z,98550.75
2023-01-03T16:39:15.009Z,98558.81
2023-01-03T16:41:48.418Z,98562.86
2023-01-03T16:44:16.227Z,98557.23
2023-01-03T16:46:45.164Z,98562.33
2023-01-03T16:49:12.985Z,98560.73
2023-01-03T16:51:47.323Z,98560.47
2023-01-03T16:54:13.214Z,98555.66
2023-01-03T16:56:41.110Z,98561.58
2023-01-03T16:59:16.052Z,98555.66
2023-01-03T17:01:43.871Z,98559.74
2023-01-03T17:04:12.152Z,98564.86
2023-01-03T17:06:41.135Z,98555.45
2023-01-03T17:09:18.706Z,98563.77
2023-01-03T17:11:47.451Z,98558.39
2023-01-03T17:14:21.203Z,98557.31
2023-01-03T17:16:50.230Z,98562.69
2023-01-03T17:21:55.251Z,98563.22
2023-01-03T17:24:26.685Z,98555.17
2023-01-03T17:27:03.725Z,98559.74
2023-01-03T17:29:31.658Z,98564.02
2023-01-03T17:31:59.136Z,98556.20
2023-01-03T17:34:30.461Z,98554.84
2023-01-03T17:37:00.546Z,98558.08
2023-01-03T17:39:28.250Z,98556.45
2023-01-03T17:42:12.078Z,98561.81
2023-01-03T17:44:39.879Z,98562.63
2023-01-03T17:47:41.321Z,98554.56
2023-01-03T17:50:09.397Z,98556.70
2023-01-03T17:52:38.088Z,98558.86
2023-01-03T17:55:22.030Z,98558.58
2023-01-03T17:57:50.415Z,98558.02
2023-01-03T18:00:28.337Z,98554.27
2023-01-03T18:02:56.941Z,98556.69
2023-01-03T18:05:28.038Z,98562.34
2023-01-03T18:07:59.063Z,98556.17
2023-01-03T18:10:45.842Z,98563.97
2023-01-03T18:13:32.343Z,98553.50
2023-01-03T18:16:00.402Z,98562.63
2023-01-03T18:18:29.302Z,98558.92
2023-01-03T18:20:57.337Z,98558.92
2023-01-03T18:23:32.490Z,98555.43
2023-01-03T18:26:04.367Z,98557.31
2023-01-03T18:28:32.597Z,98560.55
2023-01-03T18:31:00.444Z,98564.33
2023-01-03T18:33:28.065Z,98565.93
2023-01-03T18:35:56.427Z,98558.95
2023-01-03T18:38:36.111Z,98563.52
2023-01-03T18:41:05.746Z,98562.69
2023-01-03T18:43:33.794Z,98568.34
2023-01-03T18:46:01.611Z,98568.63
2023-01-03T18:48:29.383Z,98568.06
2023-01-03T18:50:59.396Z,98579.09
2023-01-03T18:53:33.324Z,98576.14
2023-01-03T18:56:02.387Z,98576.41
2023-01-03T18:58:37.339Z,98578.55
2023-01-03T19:01:06.191Z,98576.14
2023-01-03T19:03:35.403Z,98582.27
2023-01-03T19:06:14.685Z,98584.44
2023-01-03T19:08:42.789Z,98583.87
2023-01-03T19:11:18.281Z,98588.98
2023-01-03T19:13:50.804Z,98588.43
2023-01-03T19:16:25.862Z,98591.12
2023-01-03T19:18:54.352Z,98596.23
2023-01-03T19:21:23.377Z,98592.73
2023-01-03T19:23:59.367Z,98588.43
2023-01-03T19:26:40.926Z,98592.50
2023-01-03T19:29:19.397Z,98594.41
2023-01-03T19:31:49.590Z,98597.64
2023-01-03T19:34:21.075Z,98597.91
2023-01-03T19:36:49.412Z,98599.28
2023-01-03T19:39:23.999Z,98603.86
2023-01-03T19:42:09.525Z,98610.03
2023-01-03T19:44:37.247Z,98603.05
2023-01-03T19:47:10.225Z,98594.45
2023-01-03T19:49:37.696Z,98591.77
2023-01-03T19:52:05.247Z,98586.12
2023-01-03T19:54:34.154Z,98594.19
2023-01-03T19:57:01.622Z,98592.55
2023-01-03T19:59:36.767Z,98591.20
2023-01-03T20:02:25.018Z,98592.55
2023-01-03T20:04:45.374Z,98591.77
2023-01-03T20:07:14.893Z,98595.51
2023-01-03T20:09:42.545Z,98596.86
2023-01-03T20:12:18.603Z,98596.30
2023-01-03T20:14:50.359Z,98600.59
2023-01-03T20:17:26.050Z,98594.91
2023-01-03T20:19:53.504Z,98597.87
2023-01-03T20:23:03.617Z,98593.55
2023-01-03T20:24:52.399Z,98587.91
2023-01-03T20:27:19.940Z,98593.82
2023-01-03T20:29:47.717Z,98598.37
2023-01-03T20:32:15.471Z,98596.23
2023-01-03T20:34:43.115Z,98595.70
2023-01-03T20:37:15.743Z,98595.70
2023-01-03T20:39:44.690Z,98592.72
2023-01-03T20:42:24.273Z,98604.03
2023-01-03T20:44:51.658Z,98598.66
2023-01-03T20:47:23.457Z,98593.80
2023-01-03T20:49:51.063Z,98592.20
2023-01-03T20:52:18.711Z,98590.92
2023-01-03T20:54:46.256Z,98594.95
2023-01-03T20:57:15.990Z,98593.61
2023-01-03T20:59:44.233Z,98597.64
2023-01-03T21:02:12.636Z,98593.10
2023-01-03T21:04:40.858Z,98585.83
2023-01-03T21:07:19.800Z,98590.16
2023-01-03T21:09:47.550Z,98588.80
2023-01-03T21:12:15.091Z,98576.17
2023-01-03T21:14:42.769Z,98576.97
2023-01-03T21:17:10.606Z,98581.55
2023-01-03T21:19:38.683Z,98575.36
2023-01-03T21:22:11.815Z,98579.39
2023-01-03T21:24:42.723Z,98585.85
2023-01-03T21:27:08.846Z,98592.30
2023-01-03T21:29:36.661Z,98596.06
2023-01-03T21:32:04.976Z,98592.55
2023-01-03T21:34:32.475Z,98590.39
2023-01-03T21:36:59.923Z,98597.67
2023-01-03T21:39:27.503Z,98597.94
2023-01-03T21:42:13.521Z,98601.95
2023-01-03T21:44:41.242Z,98595.77
2023-01-03T21:47:09.200Z,98598.71
2023-01-03T21:49:36.783Z,98589.58
2023-01-03T21:52:04.898Z,98587.41
2023-01-03T21:54:32.723Z,98591.47
2023-01-03T21:57:00.667Z,98589.80
2023-01-03T21:59:30.496Z,98583.07
2023-01-03T22:02:17.187Z,98574.99
2023-01-03T22:04:45.516Z,98579.84
2023-01-03T22:07:13.066Z,98571.52
2023-01-03T22:09:58.922Z,98578.50
2023-01-03T22:12:26.457Z,98579.58
2023-01-03T22:14:54.211Z,98577.16
2023-01-03T22:17:21.715Z,98578.77
2023-01-03T22:19:49.453Z,98568.07
2023-01-03T22:22:16.901Z,98569.67
2023-01-03T22:24:44.551Z,98570.50
2023-01-03T22:27:12.245Z,98570.77
2023-01-03T22:29:39.970Z,98577.22
2023-01-03T22:32:07.785Z,98571.84
2023-01-03T22:34:38.615Z,98576.95
2023-01-03T22:37:06.173Z,98575.06
2023-01-03T22:39:33.730Z,98573.73
2023-01-03T22:42:01.181Z,98569.95
2023-01-03T22:44:28.627Z,98576.95
2023-01-03T22:46:56.082Z,98574.00
2023-01-03T22:49:24.035Z,98571.28
2023-01-03T22:51:51.733Z,98573.45
2023-01-03T22:54:19.495Z,98572.62
2023-01-03T22:56:47.412Z,98577.48
2023-01-03T22:59:15.487Z,98576.63
2023-01-03T23:01:43.550Z,98577.42
2023-01-03T23:04:11.615Z,98578.50
2023-01-03T23:06:39.275Z,98588.72
2023-01-03T23:09:07.030Z,98585.48
2023-01-03T23:11:53.348Z,98579.84
2023-01-03T23:14:23.255Z,98586.00
2023-01-03T23:16:51.916Z,98585.21
2023-01-03T23:19:23.551Z,98592.17
2023-01-03T23:21:52.903Z,98587.34
2023-01-03T23:24:24.710Z,98587.62
2023-01-03T23:26:53.350Z,98586.81
2023-01-03T23:29:21.695Z,98586.80
2023-01-03T23:31:49.298Z,98589.77
2023-01-03T23:34:17.125Z,98588.70
2023-01-03T23:36:44.950Z,98581.45
2023-01-03T23:39:15.742Z,98576.89
2023-01-03T23:41:43.595Z,98576.94
2023-01-03T23:44:11.490Z,98572.09
2023-01-03T23:46:39.089Z,98576.66
2023-01-03T23:49:06.903Z,98575.33
2023-01-03T23:51:36.205Z,98577.48
2023-01-03T23:54:03.895Z,98575.36
2023-01-03T23:56:31.755Z,98567.53
2023-01-03T23:58:59.487Z,98562.45
